createdAt,value
2022-10-17T00:04:29.514Z,1027.2
2022-10-17T00:18:29.477Z,1027.19
2022-10-17T00:32:29.890Z,1027.22
2022-10-17T00:46:29.596Z,1027.31
2022-10-17T01:00:29.633Z,1027.26
2022-10-17T01:14:29.620Z,1027.26
2022-10-17T01:28:29.746Z,1027.26
2022-10-17T01:42:29.982Z,1027.1799999999998
2022-10-17T01:56:29.644Z,1027.19
2022-10-17T02:10:29.773Z,1027.1599999999999
2022-10-17T02:24:29.753Z,1027.08
2022-10-17T02:38:29.761Z,1027.15
2022-10-17T02:52:30.069Z,1027.19
2022-10-17T03:06:29.752Z,1027.26
2022-10-17T03:20:29.801Z,1027.29
2022-10-17T03:34:29.783Z,1027.3899999999999
2022-10-17T03:48:29.780Z,1027.31
2022-10-17T04:02:29.779Z,1027.47
2022-10-17T04:16:29.775Z,1027.6
2022-10-17T04:30:29.782Z,1027.6399999999999
2022-10-17T04:44:29.782Z,1027.76
2022-10-17T04:58:29.792Z,1027.81
2022-10-17T05:12:30.007Z,1027.95
2022-10-17T05:27:29.830Z,1027.92
2022-10-17T05:42:30.025Z,1028.1399999999999
2022-10-17T05:57:29.830Z,1028.37
2022-10-17T06:12:30.129Z,1028.49
2022-10-17T06:27:30.047Z,1028.6100000000001
2022-10-17T06:42:29.871Z,1028.65
2022-10-17T06:57:30.322Z,1028.9
2022-10-17T07:12:29.952Z,1028.92
2022-10-17T07:27:30.245Z,1028.97
2022-10-17T07:42:30.018Z,1029.06
2022-10-17T07:57:29.985Z,1029.17
2022-10-17T08:12:30.182Z,1029.15
2022-10-17T08:27:30.013Z,1029.1799999999998
2022-10-17T08:42:30.023Z,1029.17
2022-10-17T08:57:30.306Z,1029.12
2022-10-17T09:12:30.388Z,1029.03
2022-10-17T09:27:30.245Z,1029.0700000000002
2022-10-17T09:42:30.446Z,1029.1399999999999
2022-10-17T09:57:30.107Z,1029.19
2022-10-17T10:12:30.344Z,1029.12
2022-10-17T10:27:30.151Z,1029.06
2022-10-17T10:42:30.118Z,1029.1100000000001
2022-10-17T10:59:45.405Z,1029
2022-10-17T11:14:45.668Z,1028.92
2022-10-17T11:29:45.635Z,1028.8200000000002
2022-10-17T11:45:45.822Z,1028.8
2022-10-17T12:00:47.559Z,1028.6100000000001
2022-10-17T12:15:46.762Z,1028.49
2022-10-17T12:30:46.239Z,1028.49
2022-10-17T12:45:46.281Z,1028.4299999999998
2022-10-17T13:00:54.790Z,1028.4299999999998
2022-10-17T13:15:46.315Z,1028.28
2022-10-17T13:30:46.381Z,1028.33
2022-10-17T13:45:46.406Z,1028.26
2022-10-17T14:00:46.620Z,1028.24
2022-10-17T14:15:46.543Z,1028.3600000000001
2022-10-17T14:30:57.000Z,1028.3
2022-10-17T14:46:50.412Z,1028.29
2022-10-17T15:01:46.909Z,1028.22
2022-10-17T15:16:46.935Z,1028.1799999999998
2022-10-17T15:31:46.915Z,1028.27
2022-10-17T15:46:46.924Z,1028.27
2022-10-17T16:01:46.990Z,1028.24
2022-10-17T16:16:47.013Z,1028.29
2022-10-17T16:32:47.097Z,1028.29
2022-10-17T16:47:47.097Z,1028.4099999999999
2022-10-17T17:02:47.139Z,1028.54
2022-10-17T17:16:47.108Z,1028.6399999999999
2022-10-17T17:30:47.123Z,1028.74
2022-10-17T17:44:47.119Z,1028.76
2022-10-17T17:58:47.347Z,1028.8
2022-10-17T18:12:47.218Z,1028.74
2022-10-17T18:26:47.180Z,1028.79
2022-10-17T18:40:48.575Z,1028.77
2022-10-17T18:54:47.221Z,1028.6799999999998
2022-10-17T19:08:47.220Z,1028.69
2022-10-17T19:22:47.296Z,1028.7
2022-10-17T19:36:47.277Z,1028.75
2022-10-17T19:50:47.332Z,1028.72
2022-10-17T20:04:49.814Z,1028.5900000000001
2022-10-17T20:18:47.301Z,1028.62
2022-10-17T20:32:47.485Z,1028.65
2022-10-17T20:46:57.586Z,1028.71
2022-10-17T21:00:47.392Z,1028.78
2022-10-17T21:14:47.409Z,1028.81
2022-10-17T21:28:47.451Z,1028.8
2022-10-17T21:42:47.483Z,1028.8200000000002
2022-10-17T21:56:47.446Z,1028.8
2022-10-17T22:10:47.559Z,1028.69
2022-10-17T22:24:47.588Z,1028.72
2022-10-17T22:38:47.749Z,1028.69
2022-10-17T22:52:47.563Z,1028.67
2022-10-17T23:06:47.580Z,1028.6399999999999
2022-10-17T23:20:47.584Z,1028.4299999999998
2022-10-17T23:34:47.663Z,1028.56
2022-10-17T23:48:47.636Z,1028.3600000000001
